createdAt,value
2018-05-03T00:01:50.538Z,6.87
2018-05-03T00:04:53.818Z,7.10
2018-05-03T00:07:57.059Z,7.43
2018-05-03T00:11:00.354Z,7.90
2018-05-03T00:14:03.633Z,6.90
2018-05-03T00:17:06.829Z,7.40
2018-05-03T00:20:10.083Z,8.87
2018-05-03T00:23:13.297Z,7.67
2018-05-03T00:26:16.574Z,8.20
2018-05-03T00:29:19.827Z,9.07
2018-05-03T00:32:23.036Z,7.30
2018-05-03T00:35:27.313Z,6.67
2018-05-03T00:38:30.521Z,6.50
2018-05-03T00:41:33.819Z,7.10
2018-05-03T00:44:37.104Z,7.07
2018-05-03T00:47:40.330Z,7.60
2018-05-03T00:53:51.546Z,6.80
2018-05-03T00:56:54.823Z,8.80
2018-05-03T00:59:58.117Z,7.80
2018-05-03T01:03:01.317Z,7.13
2018-05-03T01:06:04.624Z,7.37
2018-05-03T01:09:07.838Z,7.80
2018-05-03T01:12:11.851Z,8.20
2018-05-03T01:15:15.044Z,7.20
2018-05-03T01:18:18.346Z,7.40
2018-05-03T01:21:21.635Z,7.73
2018-05-03T01:24:24.845Z,8.63
2018-05-03T01:27:28.104Z,8.07
2018-05-03T01:30:31.315Z,7.83
2018-05-03T01:33:34.590Z,6.63
2018-05-03T01:36:37.932Z,7.50
2018-05-03T01:39:41.132Z,6.10
2018-05-03T01:42:44.404Z,8.17
2018-05-03T01:45:47.618Z,7.93
2018-05-03T01:48:50.936Z,8.43
2018-05-03T01:51:54.236Z,7.37
2018-05-03T01:54:57.447Z,8.03
2018-05-03T01:58:00.783Z,7.33
2018-05-03T02:01:04.064Z,6.73
2018-05-03T02:04:07.327Z,7.60
2018-05-03T02:07:10.525Z,6.13
2018-05-03T02:10:13.803Z,7.37
2018-05-03T02:13:17.076Z,8.70
2018-05-03T02:16:20.307Z,8.53
2018-05-03T02:19:23.560Z,7.47
2018-05-03T02:22:26.828Z,8.60
2018-05-03T02:25:30.104Z,7.23
2018-05-03T02:28:33.375Z,7.60
2018-05-03T02:31:36.576Z,7.23
2018-05-03T02:34:39.862Z,6.23
2018-05-03T02:37:43.093Z,7.10
2018-05-03T02:40:46.369Z,10.13
2018-05-03T02:43:50.303Z,8.63
2018-05-03T02:46:53.575Z,8.10
2018-05-03T02:49:56.930Z,8.50
2018-05-03T02:53:00.162Z,7.70
2018-05-03T02:56:03.455Z,8.47
2018-05-03T02:59:18.303Z,8.20
2018-05-03T03:02:27.320Z,7.97
2018-05-03T03:05:47.778Z,7.57
2018-05-03T03:13:02.845Z,7.23
2018-05-03T03:16:23.493Z,9.17
2018-05-03T03:19:36.721Z,6.93
2018-05-03T03:22:57.297Z,7.37
2018-05-03T03:29:59.380Z,6.47
2018-05-03T03:33:14.329Z,7.00
2018-05-03T03:36:29.040Z,6.57
2018-05-03T03:39:44.007Z,9.40
2018-05-03T03:46:19.786Z,9.87
2018-05-03T03:49:24.203Z,7.83
2018-05-03T03:52:27.409Z,9.47
2018-05-03T03:55:30.698Z,7.50
2018-05-03T03:58:34.146Z,8.87
2018-05-03T04:01:37.431Z,10.53
2018-05-03T04:04:40.628Z,9.07
2018-05-03T04:07:43.886Z,8.37
2018-05-03T04:10:47.180Z,10.03
2018-05-03T04:13:50.384Z,8.83
2018-05-03T04:16:53.653Z,8.33
2018-05-03T04:20:17.395Z,11.10
2018-05-03T04:23:43.868Z,8.20
2018-05-03T04:26:47.140Z,7.63
2018-05-03T04:29:50.357Z,8.60
2018-05-03T04:32:53.612Z,8.50
2018-05-03T04:35:56.830Z,8.73
2018-05-03T04:39:00.122Z,8.30
2018-05-03T04:42:03.400Z,9.40
2018-05-03T04:45:06.610Z,9.03
2018-05-03T04:48:10.528Z,10.07
2018-05-03T04:51:13.722Z,8.23
2018-05-03T04:54:17.099Z,8.00
2018-05-03T04:57:20.923Z,9.30
2018-05-03T05:00:24.151Z,10.60
2018-05-03T05:03:27.427Z,8.30
2018-05-03T05:06:30.636Z,9.23
2018-05-03T05:09:33.904Z,12.60
2018-05-03T05:12:37.178Z,8.47
2018-05-03T05:15:40.442Z,10.00
2018-05-03T05:18:44.005Z,10.67
2018-05-03T05:21:47.467Z,14.23
2018-05-03T05:24:50.753Z,9.47
2018-05-03T05:27:53.970Z,11.63
2018-05-03T05:30:57.242Z,12.53
2018-05-03T05:34:00.517Z,9.67
2018-05-03T05:37:03.752Z,9.70
2018-05-03T05:40:07.087Z,9.63
2018-05-03T05:43:10.305Z,11.00
2018-05-03T05:46:13.599Z,9.97
2018-05-03T05:49:16.807Z,10.90
2018-05-03T05:52:20.072Z,9.67
2018-05-03T05:55:23.342Z,10.87
2018-05-03T05:58:26.553Z,11.83
2018-05-03T06:01:29.846Z,10.33
2018-05-03T06:04:33.040Z,10.17
2018-05-03T06:07:38.006Z,11.07
2018-05-03T06:10:41.296Z,9.10
2018-05-03T06:13:44.514Z,10.10
2018-05-03T06:16:47.821Z,11.20
2018-05-03T06:19:52.311Z,9.60
2018-05-03T06:22:55.601Z,12.50
2018-05-03T06:25:58.898Z,9.27
2018-05-03T06:29:02.143Z,9.67
2018-05-03T06:32:05.446Z,10.67
2018-05-03T06:35:08.660Z,11.57
2018-05-03T06:38:11.954Z,13.33
2018-05-03T06:41:15.181Z,10.50
2018-05-03T06:44:18.475Z,10.87
2018-05-03T06:47:21.746Z,9.53
2018-05-03T06:50:24.947Z,8.90
2018-05-03T06:53:28.236Z,7.80
2018-05-03T06:56:31.463Z,8.53
2018-05-03T06:59:34.726Z,10.47
2018-05-03T07:02:37.993Z,14.27
2018-05-03T07:05:41.240Z,10.37
2018-05-03T07:08:44.522Z,10.43
2018-05-03T07:11:47.786Z,13.33
2018-05-03T07:14:51.066Z,8.60
2018-05-03T07:18:06.599Z,7.70
2018-05-03T07:21:09.798Z,8.47
2018-05-03T07:24:13.061Z,8.83
2018-05-03T07:27:16.267Z,7.87
2018-05-03T07:30:19.538Z,11.03
2018-05-03T07:33:22.730Z,8.43
2018-05-03T07:36:26.020Z,8.23
2018-05-03T07:39:29.286Z,8.90
2018-05-03T07:42:32.505Z,7.07
2018-05-03T07:45:35.759Z,10.27
2018-05-03T07:48:39.047Z,7.63
2018-05-03T07:51:42.254Z,7.40
2018-05-03T07:54:45.551Z,9.17
2018-05-03T07:57:48.743Z,9.67
2018-05-03T08:00:52.006Z,7.77
2018-05-03T08:03:55.335Z,11.27
2018-05-03T08:06:58.523Z,11.17
2018-05-03T08:10:01.812Z,10.10
2018-05-03T08:13:05.022Z,7.83
2018-05-03T08:16:08.302Z,11.40
2018-05-03T08:19:11.513Z,7.70
2018-05-03T08:22:14.774Z,8.07
2018-05-03T08:25:18.085Z,10.50
2018-05-03T08:28:21.286Z,10.57
2018-05-03T08:31:24.549Z,8.73
2018-05-03T08:34:27.822Z,11.90
2018-05-03T08:37:31.083Z,12.83
2018-05-03T08:40:34.372Z,8.47
2018-05-03T08:43:37.565Z,9.70
2018-05-03T08:46:40.831Z,10.20
2018-05-03T08:49:44.024Z,9.33
2018-05-03T08:52:47.282Z,9.50
2018-05-03T08:55:50.510Z,13.33
2018-05-03T08:58:53.801Z,10.13
2018-05-03T09:01:57.065Z,8.33
2018-05-03T09:05:00.267Z,9.20
2018-05-03T09:08:03.533Z,9.77
2018-05-03T09:11:06.738Z,10.10
2018-05-03T09:14:10.005Z,13.10
2018-05-03T09:17:13.286Z,9.97
2018-05-03T09:20:16.482Z,11.03
2018-05-03T09:23:19.779Z,14.87
2018-05-03T09:26:22.976Z,11.43
2018-05-03T09:29:26.244Z,10.97
2018-05-03T09:32:29.585Z,10.90
2018-05-03T09:35:32.797Z,10.53
2018-05-03T09:38:36.063Z,14.10
2018-05-03T09:41:39.276Z,10.53
2018-05-03T09:44:42.574Z,11.50
2018-05-03T09:47:45.771Z,16.63
2018-05-03T09:50:49.060Z,11.23
2018-05-03T09:53:52.345Z,10.30
2018-05-03T09:56:55.534Z,10.07
2018-05-03T09:59:58.818Z,14.20
2018-05-03T10:03:02.022Z,12.40
2018-05-03T10:06:05.321Z,10.43
2018-05-03T10:09:08.636Z,11.40
2018-05-03T10:12:11.850Z,12.67
2018-05-03T10:15:15.126Z,10.30
2018-05-03T10:18:18.318Z,10.77
2018-05-03T10:21:21.591Z,11.53
2018-05-03T10:24:25.197Z,14.80
2018-05-03T10:27:28.482Z,15.23
2018-05-03T10:30:31.767Z,12.63
2018-05-03T10:33:34.980Z,14.93
2018-05-03T10:36:38.243Z,14.73
2018-05-03T10:39:41.436Z,11.40
2018-05-03T10:42:44.747Z,15.17
2018-05-03T10:45:48.041Z,13.27
2018-05-03T10:48:51.298Z,14.50
2018-05-03T10:51:54.581Z,10.93
2018-05-03T10:54:57.784Z,11.20
2018-05-03T10:58:01.042Z,10.20
2018-05-03T11:01:04.239Z,15.97
2018-05-03T11:04:07.514Z,11.00
2018-05-03T11:07:10.764Z,9.60
2018-05-03T11:10:13.968Z,9.10
2018-05-03T11:13:17.263Z,10.83
2018-05-03T11:16:20.477Z,10.73
2018-05-03T11:19:23.753Z,9.07
2018-05-03T11:22:26.958Z,11.47
2018-05-03T11:25:30.243Z,10.40
2018-05-03T11:28:33.534Z,11.27
2018-05-03T11:31:36.735Z,8.63
2018-05-03T11:34:39.996Z,10.50
2018-05-03T11:37:43.193Z,9.97
2018-05-03T11:40:46.458Z,10.07
2018-05-03T11:43:49.730Z,11.87
2018-05-03T11:46:52.931Z,8.50
2018-05-03T11:49:56.193Z,8.50
2018-05-03T11:52:59.395Z,8.60
2018-05-03T11:56:02.684Z,9.60
2018-05-03T11:59:05.960Z,8.27
2018-05-03T12:02:09.218Z,10.77
2018-05-03T12:05:12.485Z,11.20
2018-05-03T12:08:15.703Z,9.40
2018-05-03T12:11:18.971Z,8.67
2018-05-03T12:14:22.167Z,10.10
2018-05-03T12:17:25.430Z,10.60
2018-05-03T12:20:28.704Z,8.07
2018-05-03T12:23:31.906Z,6.87
2018-05-03T12:26:35.165Z,7.90
2018-05-03T12:29:38.352Z,6.90
2018-05-03T12:32:41.622Z,12.63
2018-05-03T12:35:44.812Z,10.10
2018-05-03T12:38:48.093Z,9.27
2018-05-03T12:41:51.354Z,8.87
2018-05-03T12:44:54.578Z,7.87
2018-05-03T12:47:57.831Z,7.00
2018-05-03T12:51:01.050Z,9.93
2018-05-03T12:54:04.328Z,14.00
2018-05-03T12:57:07.522Z,7.17
2018-05-03T13:00:10.816Z,6.97
2018-05-03T13:03:14.074Z,6.50
2018-05-03T13:06:17.280Z,9.93
2018-05-03T13:09:20.555Z,10.07
2018-05-03T13:12:23.765Z,8.33
2018-05-03T13:15:27.642Z,10.43
2018-05-03T13:18:30.922Z,7.10
2018-05-03T13:21:34.127Z,6.83
2018-05-03T13:24:37.398Z,6.67
2018-05-03T13:27:40.622Z,6.67
2018-05-03T13:30:43.884Z,10.67
2018-05-03T13:37:18.429Z,5.73
2018-05-03T13:40:21.706Z,5.87
2018-05-03T13:43:24.950Z,5.97
2018-05-03T13:46:38.142Z,5.70
2018-05-03T13:49:41.414Z,7.53
2018-05-03T13:52:44.615Z,6.37
2018-05-03T13:59:25.717Z,6.60
2018-05-03T14:02:30.492Z,7.47
2018-05-03T14:05:33.790Z,7.73
2018-05-03T14:08:38.121Z,8.67
2018-05-03T14:11:41.526Z,5.53
2018-05-03T14:14:44.727Z,6.70
2018-05-03T14:18:03.496Z,5.17
2018-05-03T14:21:12.859Z,10.50
2018-05-03T14:24:16.103Z,5.87
2018-05-03T14:27:39.524Z,5.97
2018-05-03T14:30:43.387Z,5.50
2018-05-03T14:33:46.654Z,6.33
2018-05-03T14:36:49.863Z,4.67
2018-05-03T14:39:53.149Z,6.87
2018-05-03T14:42:56.438Z,4.47
2018-05-03T14:45:59.649Z,5.00
2018-05-03T14:49:02.915Z,7.90
2018-05-03T14:52:06.138Z,9.67
2018-05-03T14:55:09.412Z,4.70
2018-05-03T14:58:12.690Z,9.98
2018-05-03T15:01:15.890Z,5.57
2018-05-03T15:04:19.158Z,6.50
2018-05-03T15:07:22.358Z,5.47
2018-05-03T15:10:25.632Z,5.03
2018-05-03T15:13:28.830Z,6.27
2018-05-03T15:16:32.129Z,4.87
2018-05-03T15:19:35.395Z,4.30
2018-05-03T15:22:38.601Z,5.63
2018-05-03T15:25:41.859Z,7.00
2018-05-03T15:28:45.051Z,7.10
2018-05-03T15:31:48.314Z,5.85
2018-05-03T15:34:51.621Z,4.78
2018-05-03T15:37:54.830Z,5.93
2018-05-03T15:40:58.097Z,5.60
2018-05-03T15:44:12.089Z,6.37
2018-05-03T15:47:15.820Z,4.95
2018-05-03T15:50:19.130Z,4.72
2018-05-03T15:53:22.345Z,6.70
2018-05-03T15:56:25.607Z,5.55
2018-05-03T15:59:28.865Z,5.07
2018-05-03T16:02:32.181Z,7.28
2018-05-03T16:05:35.440Z,5.22
2018-05-03T16:08:38.645Z,5.65
2018-05-03T16:11:41.907Z,7.07
2018-05-03T16:14:45.135Z,10.23
2018-05-03T16:17:56.325Z,7.30
2018-05-03T16:21:13.425Z,7.37
2018-05-03T16:24:17.008Z,5.57
2018-05-03T16:27:22.512Z,6.17
2018-05-03T16:30:25.718Z,4.70
2018-05-03T16:33:30.933Z,5.10
2018-05-03T16:36:40.798Z,5.22
2018-05-03T16:39:44.096Z,6.45
2018-05-03T16:42:47.356Z,5.85
2018-05-03T16:45:51.138Z,3.63
2018-05-03T16:48:54.742Z,4.17
2018-05-03T16:51:57.938Z,4.03
2018-05-03T16:55:01.241Z,3.50
2018-05-03T16:58:04.531Z,6.03
2018-05-03T17:01:07.819Z,4.45
2018-05-03T17:04:11.081Z,7.47
2018-05-03T17:07:14.298Z,3.55
2018-05-03T17:10:17.648Z,3.87
2018-05-03T17:13:20.918Z,4.97
2018-05-03T17:16:24.119Z,4.53
2018-05-03T17:19:27.391Z,3.53
2018-05-03T17:22:30.582Z,3.45
2018-05-03T17:25:33.872Z,5.93
2018-05-03T17:28:37.064Z,4.47
2018-05-03T17:31:40.322Z,3.05
2018-05-03T17:34:43.584Z,4.40
2018-05-03T17:37:47.603Z,3.42
2018-05-03T17:40:50.848Z,3.80
2018-05-03T17:43:54.027Z,2.40
2018-05-03T17:46:57.855Z,5.35
2018-05-03T17:50:01.122Z,4.45
2018-05-03T17:53:21.066Z,4.62
2018-05-03T17:56:24.594Z,3.25
2018-05-03T17:59:27.791Z,5.05
2018-05-03T18:02:31.063Z,3.70
2018-05-03T18:05:34.333Z,2.78
2018-05-03T18:08:37.525Z,4.23
2018-05-03T18:11:40.785Z,3.13
2018-05-03T18:14:45.433Z,3.53
2018-05-03T18:17:48.771Z,5.87
2018-05-03T18:20:52.052Z,4.43
2018-05-03T18:23:55.969Z,4.50
2018-05-03T18:26:59.230Z,5.80
2018-05-03T18:30:03.531Z,5.07
2018-05-03T18:33:07.734Z,4.60
2018-05-03T18:36:11.019Z,5.97
2018-05-03T18:39:14.204Z,5.13
2018-05-03T18:42:17.470Z,6.77
2018-05-03T18:45:20.657Z,6.17
2018-05-03T18:48:23.955Z,7.00
2018-05-03T18:51:27.223Z,4.60
2018-05-03T18:54:30.507Z,5.40
2018-05-03T18:57:33.787Z,7.63
2018-05-03T19:00:37.017Z,5.13
2018-05-03T19:03:48.658Z,6.70
2018-05-03T19:06:51.862Z,5.93
2018-05-03T19:09:55.124Z,8.77
2018-05-03T19:12:58.360Z,8.33
2018-05-03T19:16:01.618Z,6.67
2018-05-03T19:19:04.876Z,5.97
2018-05-03T19:22:08.069Z,5.77
2018-05-03T19:25:11.329Z,4.87
2018-05-03T19:28:14.528Z,5.80
2018-05-03T19:31:17.804Z,6.10
2018-05-03T19:34:21.059Z,7.00
2018-05-03T19:37:24.268Z,6.77
2018-05-03T19:40:27.570Z,10.50
2018-05-03T19:43:30.812Z,9.50
2018-05-03T19:46:34.095Z,9.83
2018-05-03T19:49:37.371Z,11.87
2018-05-03T19:52:40.576Z,9.90
2018-05-03T19:55:43.839Z,10.13
2018-05-03T19:58:47.034Z,9.80
2018-05-03T20:01:50.341Z,9.07
2018-05-03T20:04:53.534Z,6.83
2018-05-03T20:07:56.815Z,8.17
2018-05-03T20:11:00.087Z,8.40
2018-05-03T20:14:03.275Z,5.50
2018-05-03T20:17:06.554Z,6.47
2018-05-03T20:20:09.751Z,5.23
2018-05-03T20:23:13.022Z,6.93
2018-05-03T20:26:16.298Z,8.57
2018-05-03T20:29:19.490Z,4.20
2018-05-03T20:32:22.762Z,6.13
2018-05-03T20:35:25.966Z,4.80
2018-05-03T20:38:29.225Z,6.07
2018-05-03T20:41:32.426Z,7.87
2018-05-03T20:44:35.711Z,5.73
2018-05-03T20:47:38.977Z,4.30
2018-05-03T20:50:42.223Z,4.67
2018-05-03T20:53:45.480Z,5.53
2018-05-03T20:56:48.699Z,5.10
2018-05-03T20:59:51.962Z,7.80
2018-05-03T21:02:55.238Z,4.67
2018-05-03T21:05:58.439Z,5.03
2018-05-03T21:09:01.705Z,6.83
2018-05-03T21:12:04.911Z,9.33
2018-05-03T21:15:08.200Z,5.80
2018-05-03T21:18:11.454Z,7.20
2018-05-03T21:21:14.659Z,5.80
2018-05-03T21:24:17.962Z,3.17
2018-05-03T21:27:21.167Z,3.93
2018-05-03T21:30:24.434Z,6.87
2018-05-03T21:33:27.684Z,4.97
2018-05-03T21:36:31.004Z,5.53
2018-05-03T21:39:34.266Z,6.03
2018-05-03T21:42:37.468Z,6.27
2018-05-03T21:45:40.742Z,5.20
2018-05-03T21:48:50.662Z,7.00
2018-05-03T21:51:53.915Z,9.17
2018-05-03T21:54:57.165Z,5.53
2018-05-03T21:58:00.366Z,6.23
2018-05-03T22:01:03.700Z,3.77
2018-05-03T22:04:06.958Z,5.80
2018-05-03T22:07:10.221Z,4.07
2018-05-03T22:10:13.478Z,4.73
2018-05-03T22:13:16.666Z,3.30
2018-05-03T22:16:19.943Z,3.90
2018-05-03T22:19:23.161Z,9.90
2018-05-03T22:22:26.623Z,8.03
2018-05-03T22:25:29.933Z,5.00
2018-05-03T22:28:33.185Z,4.87
2018-05-03T22:31:36.442Z,4.70
2018-05-03T22:34:39.642Z,6.87
2018-05-03T22:37:42.906Z,3.50
2018-05-03T22:40:46.156Z,6.30
2018-05-03T22:43:49.443Z,6.07
2018-05-03T22:46:52.702Z,7.27
2018-05-03T22:49:55.948Z,5.40
2018-05-03T22:52:59.228Z,3.50
2018-05-03T22:56:02.424Z,3.90
2018-05-03T22:59:05.686Z,6.13
2018-05-03T23:02:08.949Z,6.50
2018-05-03T23:05:12.160Z,6.33
2018-05-03T23:08:15.431Z,4.90
2018-05-03T23:11:18.622Z,6.50
2018-05-03T23:14:21.929Z,5.77
2018-05-03T23:17:25.201Z,6.10
2018-05-03T23:20:28.448Z,6.50
2018-05-03T23:23:31.696Z,8.07
2018-05-03T23:26:34.887Z,4.70
2018-05-03T23:29:38.146Z,5.43
2018-05-03T23:32:41.352Z,3.23
2018-05-03T23:35:44.609Z,5.83
2018-05-03T23:38:47.921Z,4.47
2018-05-03T23:41:51.099Z,5.83
2018-05-03T23:44:54.331Z,4.30
2018-05-03T23:47:57.523Z,5.43
2018-05-03T23:51:00.782Z,6.27
2018-05-03T23:54:04.084Z,5.50
2018-05-03T23:57:07.275Z,6.70
